sensor_id;sensor_type;location;lat;lon;timestamp;P1;durP1;ratioP1;P2;durP2;ratioP2
20122;SDS011;10222;50.848;4.336;2023-06-26T00:00:56;5.30;;;2.85;;
20122;SDS011;10222;50.848;4.336;2023-06-26T00:05:51;5.90;;;2.83;;
20122;SDS011;10222;50.848;4.336;2023-06-26T00:08:19;3.63;;;2.92;;
20122;SDS011;10222;50.848;4.336;2023-06-26T00:10:46;4.15;;;2.50;;
20122;SDS011;10222;50.848;4.336;2023-06-26T00:13:16;4.22;;;2.40;;
20122;SDS011;10222;50.848;4.336;2023-06-26T00:15:43;5.10;;;2.25;;
20122;SDS011;10222;50.848;4.336;2023-06-26T00:18:10;2.63;;;1.90;;
20122;SDS011;10222;50.848;4.336;2023-06-26T00:20:36;3.83;;;2.08;;
20122;SDS011;10222;50.848;4.336;2023-06-26T00:23:04;4.30;;;2.05;;
20122;SDS011;10222;50.848;4.336;2023-06-26T00:25:34;4.50;;;2.05;;
20122;SDS011;10222;50.848;4.336;2023-06-26T00:28:01;4.68;;;2.00;;
20122;SDS011;10222;50.848;4.336;2023-06-26T00:30:27;4.95;;;2.00;;
20122;SDS011;10222;50.848;4.336;2023-06-26T00:32:53;6.85;;;2.03;;
20122;SDS011;10222;50.848;4.336;2023-06-26T00:35:21;5.00;;;2.00;;
20122;SDS011;10222;50.848;4.336;2023-06-26T00:37:50;5.82;;;2.40;;
20122;SDS011;10222;50.848;4.336;2023-06-26T00:40:19;4.43;;;2.85;;
20122;SDS011;10222;50.848;4.336;2023-06-26T00:42:46;4.93;;;2.22;;
20122;SDS011;10222;50.848;4.336;2023-06-26T00:45:12;5.60;;;2.30;;
20122;SDS011;10222;50.848;4.336;2023-06-26T00:47:39;3.67;;;2.47;;
20122;SDS011;10222;50.848;4.336;2023-06-26T00:50:05;4.75;;;2.20;;
20122;SDS011;10222;50.848;4.336;2023-06-26T00:52:31;4.20;;;1.92;;
20122;SDS011;10222;50.848;4.336;2023-06-26T00:54:58;2.47;;;1.73;;
20122;SDS011;10222;50.848;4.336;2023-06-26T00:57:25;5.90;;;2.15;;
20122;SDS011;10222;50.848;4.336;2023-06-26T00:59:52;3.85;;;2.25;;
20122;SDS011;10222;50.848;4.336;2023-06-26T01:02:21;2.45;;;1.80;;
20122;SDS011;10222;50.848;4.336;2023-06-26T01:04:48;4.07;;;2.17;;
20122;SDS011;10222;50.848;4.336;2023-06-26T01:07:14;4.28;;;1.85;;
20122;SDS011;10222;50.848;4.336;2023-06-26T01:09:45;3.28;;;2.05;;
20122;SDS011;10222;50.848;4.336;2023-06-26T01:12:13;4.38;;;2.28;;
20122;SDS011;10222;50.848;4.336;2023-06-26T01:14:40;4.20;;;1.92;;
20122;SDS011;10222;50.848;4.336;2023-06-26T01:17:06;4.25;;;1.88;;
20122;SDS011;10222;50.848;4.336;2023-06-26T01:19:36;3.17;;;1.90;;
20122;SDS011;10222;50.848;4.336;2023-06-26T01:22:05;2.60;;;1.67;;
20122;SDS011;10222;50.848;4.336;2023-06-26T01:24:42;3.58;;;1.65;;
20122;SDS011;10222;50.848;4.336;2023-06-26T01:29:40;3.83;;;1.73;;
20122;SDS011;10222;50.848;4.336;2023-06-26T01:32:07;3.65;;;1.65;;
20122;SDS011;10222;50.848;4.336;2023-06-26T01:34:35;3.15;;;1.80;;
20122;SDS011;10222;50.848;4.336;2023-06-26T01:37:01;3.58;;;1.58;;
20122;SDS011;10222;50.848;4.336;2023-06-26T01:39:27;4.32;;;1.77;;
20122;SDS011;10222;50.848;4.336;2023-06-26T01:41:57;3.72;;;2.20;;
20122;SDS011;10222;50.848;4.336;2023-06-26T01:49:23;4.63;;;1.98;;
20122;SDS011;10222;50.848;4.336;2023-06-26T01:51:55;2.53;;;1.83;;
20122;SDS011;10222;50.848;4.336;2023-06-26T01:54:24;2.97;;;1.58;;
20122;SDS011;10222;50.848;4.336;2023-06-26T01:56:52;4.13;;;1.90;;
20122;SDS011;10222;50.848;4.336;2023-06-26T01:59:20;3.45;;;1.67;;
20122;SDS011;10222;50.848;4.336;2023-06-26T02:01:47;4.32;;;1.77;;
20122;SDS011;10222;50.848;4.336;2023-06-26T02:04:14;4.97;;;2.10;;
20122;SDS011;10222;50.848;4.336;2023-06-26T02:06:40;3.78;;;1.95;;
20122;SDS011;10222;50.848;4.336;2023-06-26T02:09:06;4.18;;;1.90;;
20122;SDS011;10222;50.848;4.336;2023-06-26T02:11:33;4.50;;;2.20;;
20122;SDS011;10222;50.848;4.336;2023-06-26T02:14:00;4.20;;;2.10;;
20122;SDS011;10222;50.848;4.336;2023-06-26T02:16:28;3.65;;;1.85;;
20122;SDS011;10222;50.848;4.336;2023-06-26T02:18:55;3.05;;;1.92;;
20122;SDS011;10222;50.848;4.336;2023-06-26T02:21:22;2.53;;;1.80;;
20122;SDS011;10222;50.848;4.336;2023-06-26T02:23:48;5.50;;;1.95;;
20122;SDS011;10222;50.848;4.336;2023-06-26T02:26:16;3.27;;;1.70;;
20122;SDS011;10222;50.848;4.336;2023-06-26T02:28:45;4.13;;;2.17;;
20122;SDS011;10222;50.848;4.336;2023-06-26T02:31:12;4.75;;;1.73;;
20122;SDS011;10222;50.848;4.336;2023-06-26T02:33:39;6.25;;;1.90;;
20122;SDS011;10222;50.848;4.336;2023-06-26T02:36:05;4.23;;;1.97;;
20122;SDS011;10222;50.848;4.336;2023-06-26T02:38:32;4.88;;;1.92;;
20122;SDS011;10222;50.848;4.336;2023-06-26T02:40:59;9.43;;;1.97;;
20122;SDS011;10222;50.848;4.336;2023-06-26T02:43:26;3.40;;;1.97;;
20122;SDS011;10222;50.848;4.336;2023-06-26T02:45:53;5.40;;;1.90;;
20122;SDS011;10222;50.848;4.336;2023-06-26T02:48:20;5.23;;;2.00;;
20122;SDS011;10222;50.848;4.336;2023-06-26T02:53:15;4.40;;;1.90;;
20122;SDS011;10222;50.848;4.336;2023-06-26T02:55:41;5.43;;;2.23;;
20122;SDS011;10222;50.848;4.336;2023-06-26T02:58:09;6.43;;;1.98;;
20122;SDS011;10222;50.848;4.336;2023-06-26T03:00:35;6.57;;;2.17;;
20122;SDS011;10222;50.848;4.336;2023-06-26T03:03:07;4.67;;;2.07;;
20122;SDS011;10222;50.848;4.336;2023-06-26T03:05:34;3.50;;;2.15;;
20122;SDS011;10222;50.848;4.336;2023-06-26T03:08:02;3.90;;;1.93;;
20122;SDS011;10222;50.848;4.336;2023-06-26T03:10:29;4.93;;;2.42;;
20122;SDS011;10222;50.848;4.336;2023-06-26T03:12:57;5.97;;;2.30;;
20122;SDS011;10222;50.848;4.336;2023-06-26T03:15:23;5.10;;;1.98;;
20122;SDS011;10222;50.848;4.336;2023-06-26T03:17:49;3.38;;;1.52;;
20122;SDS011;10222;50.848;4.336;2023-06-26T03:20:15;5.00;;;2.30;;
20122;SDS011;10222;50.848;4.336;2023-06-26T03:22:41;4.50;;;2.20;;
20122;SDS011;10222;50.848;4.336;2023-06-26T03:27:36;4.53;;;2.25;;
20122;SDS011;10222;50.848;4.336;2023-06-26T03:32:32;5.43;;;2.30;;
20122;SDS011;10222;50.848;4.336;2023-06-26T03:35:04;8.40;;;2.30;;
20122;SDS011;10222;50.848;4.336;2023-06-26T03:37:30;9.93;;;3.33;;
20122;SDS011;10222;50.848;4.336;2023-06-26T03:39:56;5.67;;;2.37;;
20122;SDS011;10222;50.848;4.336;2023-06-26T03:42:23;3.88;;;1.90;;
20122;SDS011;10222;50.848;4.336;2023-06-26T03:44:52;6.37;;;2.23;;
20122;SDS011;10222;50.848;4.336;2023-06-26T03:47:18;8.17;;;2.60;;
20122;SDS011;10222;50.848;4.336;2023-06-26T03:49:44;6.73;;;2.53;;
20122;SDS011;10222;50.848;4.336;2023-06-26T03:52:12;6.63;;;2.77;;
20122;SDS011;10222;50.848;4.336;2023-06-26T03:54:41;7.80;;;2.53;;
20122;SDS011;10222;50.848;4.336;2023-06-26T03:57:10;6.97;;;2.77;;
20122;SDS011;10222;50.848;4.336;2023-06-26T03:59:36;5.93;;;2.40;;
20122;SDS011;10222;50.848;4.336;2023-06-26T04:02:02;8.13;;;2.53;;
20122;SDS011;10222;50.848;4.336;2023-06-26T04:04:28;6.33;;;2.37;;
20122;SDS011;10222;50.848;4.336;2023-06-26T04:06:54;7.43;;;2.83;;
20122;SDS011;10222;50.848;4.336;2023-06-26T04:09:21;8.10;;;2.53;;
20122;SDS011;10222;50.848;4.336;2023-06-26T04:11:47;12.65;;;3.30;;
20122;SDS011;10222;50.848;4.336;2023-06-26T04:14:12;5.30;;;2.13;;
20122;SDS011;10222;50.848;4.336;2023-06-26T04:16:38;5.32;;;2.28;;
20122;SDS011;10222;50.848;4.336;2023-06-26T04:19:04;4.47;;;1.93;;
20122;SDS011;10222;50.848;4.336;2023-06-26T04:21:30;6.17;;;2.20;;
20122;SDS011;10222;50.848;4.336;2023-06-26T04:23:56;9.83;;;2.60;;
20122;SDS011;10222;50.848;4.336;2023-06-26T04:26:22;13.47;;;2.33;;
20122;SDS011;10222;50.848;4.336;2023-06-26T04:28:48;7.38;;;2.30;;
20122;SDS011;10222;50.848;4.336;2023-06-26T04:31:14;7.07;;;1.97;;
20122;SDS011;10222;50.848;4.336;2023-06-26T04:33:40;5.65;;;2.08;;
20122;SDS011;10222;50.848;4.336;2023-06-26T04:36:06;7.13;;;2.17;;
20122;SDS011;10222;50.848;4.336;2023-06-26T04:38:32;7.23;;;2.37;;
20122;SDS011;10222;50.848;4.336;2023-06-26T04:40:59;7.87;;;2.20;;
20122;SDS011;10222;50.848;4.336;2023-06-26T04:43:25;6.10;;;2.00;;
20122;SDS011;10222;50.848;4.336;2023-06-26T04:45:51;5.97;;;1.47;;
20122;SDS011;10222;50.848;4.336;2023-06-26T04:48:17;7.80;;;2.30;;
20122;SDS011;10222;50.848;4.336;2023-06-26T04:50:43;6.50;;;1.77;;
20122;SDS011;10222;50.848;4.336;2023-06-26T04:53:18;7.20;;;2.20;;
20122;SDS011;10222;50.848;4.336;2023-06-26T04:55:44;6.67;;;2.20;;
20122;SDS011;10222;50.848;4.336;2023-06-26T04:58:10;7.00;;;2.23;;
20122;SDS011;10222;50.848;4.336;2023-06-26T05:00:36;4.57;;;1.77;;
20122;SDS011;10222;50.848;4.336;2023-06-26T05:03:02;6.00;;;1.80;;
20122;SDS011;10222;50.848;4.336;2023-06-26T05:05:28;9.47;;;1.87;;
20122;SDS011;10222;50.848;4.336;2023-06-26T05:07:55;8.83;;;2.53;;
20122;SDS011;10222;50.848;4.336;2023-06-26T05:10:21;9.03;;;2.30;;
20122;SDS011;10222;50.848;4.336;2023-06-26T05:12:47;4.10;;;1.97;;
20122;SDS011;10222;50.848;4.336;2023-06-26T05:15:13;5.13;;;1.83;;
20122;SDS011;10222;50.848;4.336;2023-06-26T05:17:39;5.33;;;1.90;;
20122;SDS011;10222;50.848;4.336;2023-06-26T05:20:05;6.23;;;2.00;;
20122;SDS011;10222;50.848;4.336;2023-06-26T05:22:32;10.25;;;2.17;;
20122;SDS011;10222;50.848;4.336;2023-06-26T05:25:00;4.90;;;1.73;;
20122;SDS011;10222;50.848;4.336;2023-06-26T05:27:26;7.03;;;2.10;;
20122;SDS011;10222;50.848;4.336;2023-06-26T05:29:52;8.40;;;1.37;;
20122;SDS011;10222;50.848;4.336;2023-06-26T05:32:18;5.03;;;1.60;;
20122;SDS011;10222;50.848;4.336;2023-06-26T05:34:46;6.57;;;1.73;;
20122;SDS011;10222;50.848;4.336;2023-06-26T05:37:14;8.43;;;1.67;;
20122;SDS011;10222;50.848;4.336;2023-06-26T05:39:41;3.73;;;1.60;;
20122;SDS011;10222;50.848;4.336;2023-06-26T05:42:08;7.93;;;2.10;;
20122;SDS011;10222;50.848;4.336;2023-06-26T05:44:35;6.67;;;1.80;;
20122;SDS011;10222;50.848;4.336;2023-06-26T05:47:01;6.97;;;2.00;;
20122;SDS011;10222;50.848;4.336;2023-06-26T05:49:27;6.57;;;2.27;;
20122;SDS011;10222;50.848;4.336;2023-06-26T05:51:53;7.33;;;1.73;;
20122;SDS011;10222;50.848;4.336;2023-06-26T05:54:19;6.40;;;1.70;;
20122;SDS011;10222;50.848;4.336;2023-06-26T05:56:45;5.53;;;1.67;;
20122;SDS011;10222;50.848;4.336;2023-06-26T05:59:11;6.20;;;1.40;;
20122;SDS011;10222;50.848;4.336;2023-06-26T06:01:38;6.47;;;1.63;;
20122;SDS011;10222;50.848;4.336;2023-06-26T06:04:04;5.20;;;1.93;;
20122;SDS011;10222;50.848;4.336;2023-06-26T06:06:30;5.93;;;1.47;;
20122;SDS011;10222;50.848;4.336;2023-06-26T06:08:56;3.30;;;1.13;;
20122;SDS011;10222;50.848;4.336;2023-06-26T06:11:22;3.93;;;1.73;;
20122;SDS011;10222;50.848;4.336;2023-06-26T06:13:48;6.03;;;1.73;;
20122;SDS011;10222;50.848;4.336;2023-06-26T06:16:14;9.67;;;1.80;;
20122;SDS011;10222;50.848;4.336;2023-06-26T06:18:40;7.50;;;1.40;;
20122;SDS011;10222;50.848;4.336;2023-06-26T06:21:06;3.83;;;1.50;;
20122;SDS011;10222;50.848;4.336;2023-06-26T06:23:32;2.47;;;1.40;;
20122;SDS011;10222;50.848;4.336;2023-06-26T06:25:58;4.40;;;1.60;;
20122;SDS011;10222;50.848;4.336;2023-06-26T06:28:24;3.40;;;1.33;;
20122;SDS011;10222;50.848;4.336;2023-06-26T06:30:50;4.47;;;1.23;;
20122;SDS011;10222;50.848;4.336;2023-06-26T06:33:16;3.83;;;1.00;;
20122;SDS011;10222;50.848;4.336;2023-06-26T06:35:42;5.43;;;1.53;;
20122;SDS011;10222;50.848;4.336;2023-06-26T06:38:08;7.33;;;1.17;;
20122;SDS011;10222;50.848;4.336;2023-06-26T06:40:34;6.03;;;1.50;;
20122;SDS011;10222;50.848;4.336;2023-06-26T06:43:01;3.17;;;1.00;;
20122;SDS011;10222;50.848;4.336;2023-06-26T06:45:27;6.27;;;1.17;;
20122;SDS011;10222;50.848;4.336;2023-06-26T06:47:53;4.03;;;0.90;;
20122;SDS011;10222;50.848;4.336;2023-06-26T06:50:19;7.60;;;1.03;;
20122;SDS011;10222;50.848;4.336;2023-06-26T06:52:45;2.97;;;1.30;;
20122;SDS011;10222;50.848;4.336;2023-06-26T06:55:12;7.73;;;1.83;;
20122;SDS011;10222;50.848;4.336;2023-06-26T06:57:39;3.40;;;1.13;;
20122;SDS011;10222;50.848;4.336;2023-06-26T07:00:06;5.93;;;1.30;;
20122;SDS011;10222;50.848;4.336;2023-06-26T07:02:34;4.10;;;1.10;;
20122;SDS011;10222;50.848;4.336;2023-06-26T07:05:00;3.23;;;1.10;;
20122;SDS011;10222;50.848;4.336;2023-06-26T07:07:28;3.70;;;0.90;;
20122;SDS011;10222;50.848;4.336;2023-06-26T07:09:56;4.13;;;1.20;;
20122;SDS011;10222;50.848;4.336;2023-06-26T07:12:23;7.20;;;1.57;;
20122;SDS011;10222;50.848;4.336;2023-06-26T07:14:49;3.57;;;1.90;;
20122;SDS011;10222;50.848;4.336;2023-06-26T07:17:15;4.67;;;1.83;;
20122;SDS011;10222;50.848;4.336;2023-06-26T07:19:41;6.33;;;1.33;;
20122;SDS011;10222;50.848;4.336;2023-06-26T07:22:07;3.00;;;0.97;;
20122;SDS011;10222;50.848;4.336;2023-06-26T07:24:33;2.97;;;0.90;;
20122;SDS011;10222;50.848;4.336;2023-06-26T07:26:59;1.67;;;1.10;;
20122;SDS011;10222;50.848;4.336;2023-06-26T07:29:26;3.30;;;1.27;;
20122;SDS011;10222;50.848;4.336;2023-06-26T07:31:52;5.90;;;1.30;;
20122;SDS011;10222;50.848;4.336;2023-06-26T07:34:17;6.07;;;0.73;;
20122;SDS011;10222;50.848;4.336;2023-06-26T07:36:44;2.93;;;1.03;;
20122;SDS011;10222;50.848;4.336;2023-06-26T07:39:11;3.73;;;1.23;;
20122;SDS011;10222;50.848;4.336;2023-06-26T07:41:37;2.53;;;0.90;;
20122;SDS011;10222;50.848;4.336;2023-06-26T07:44:03;5.13;;;1.20;;
20122;SDS011;10222;50.848;4.336;2023-06-26T07:46:30;3.25;;;1.08;;
20122;SDS011;10222;50.848;4.336;2023-06-26T07:48:55;8.15;;;1.90;;
20122;SDS011;10222;50.848;4.336;2023-06-26T07:51:21;3.60;;;1.00;;
20122;SDS011;10222;50.848;4.336;2023-06-26T07:53:48;4.40;;;1.30;;
20122;SDS011;10222;50.848;4.336;2023-06-26T07:56:14;2.37;;;0.87;;
20122;SDS011;10222;50.848;4.336;2023-06-26T07:58:40;5.57;;;1.20;;
20122;SDS011;10222;50.848;4.336;2023-06-26T08:01:07;7.73;;;1.20;;
20122;SDS011;10222;50.848;4.336;2023-06-26T08:03:33;2.60;;;0.90;;
20122;SDS011;10222;50.848;4.336;2023-06-26T08:05:59;6.70;;;1.60;;
20122;SDS011;10222;50.848;4.336;2023-06-26T08:08:25;3.83;;;0.97;;
20122;SDS011;10222;50.848;4.336;2023-06-26T08:10:51;1.73;;;0.70;;
20122;SDS011;10222;50.848;4.336;2023-06-26T08:13:17;7.60;;;1.00;;
20122;SDS011;10222;50.848;4.336;2023-06-26T08:15:43;2.93;;;1.00;;
20122;SDS011;10222;50.848;4.336;2023-06-26T08:18:09;0.93;;;0.67;;
20122;SDS011;10222;50.848;4.336;2023-06-26T08:20:35;4.07;;;1.07;;
20122;SDS011;10222;50.848;4.336;2023-06-26T08:23:02;2.17;;;0.90;;
20122;SDS011;10222;50.848;4.336;2023-06-26T08:25:28;2.50;;;1.10;;
20122;SDS011;10222;50.848;4.336;2023-06-26T08:27:54;1.73;;;1.00;;
20122;SDS011;10222;50.848;4.336;2023-06-26T08:30:20;3.03;;;1.20;;
20122;SDS011;10222;50.848;4.336;2023-06-26T08:32:46;3.07;;;1.30;;
20122;SDS011;10222;50.848;4.336;2023-06-26T08:35:12;3.17;;;1.10;;
20122;SDS011;10222;50.848;4.336;2023-06-26T08:37:38;3.37;;;1.10;;
20122;SDS011;10222;50.848;4.336;2023-06-26T08:40:05;3.37;;;1.10;;
20122;SDS011;10222;50.848;4.336;2023-06-26T08:42:32;4.28;;;1.50;;
20122;SDS011;10222;50.848;4.336;2023-06-26T08:44:58;1.80;;;0.93;;
20122;SDS011;10222;50.848;4.336;2023-06-26T08:47:24;4.90;;;1.02;;
20122;SDS011;10222;50.848;4.336;2023-06-26T08:52:22;2.53;;;0.80;;
20122;SDS011;10222;50.848;4.336;2023-06-26T08:54:52;2.17;;;0.83;;
20122;SDS011;10222;50.848;4.336;2023-06-26T08:57:21;5.10;;;1.13;;
20122;SDS011;10222;50.848;4.336;2023-06-26T08:59:48;2.67;;;1.45;;
20122;SDS011;10222;50.848;4.336;2023-06-26T09:02:15;8.18;;;1.98;;
20122;SDS011;10222;50.848;4.336;2023-06-26T09:04:41;3.60;;;0.90;;
20122;SDS011;10222;50.848;4.336;2023-06-26T09:07:07;1.97;;;1.20;;
20122;SDS011;10222;50.848;4.336;2023-06-26T09:09:34;4.50;;;1.02;;
20122;SDS011;10222;50.848;4.336;2023-06-26T09:12:01;3.23;;;0.80;;
20122;SDS011;10222;50.848;4.336;2023-06-26T09:14:27;6.80;;;1.00;;
20122;SDS011;10222;50.848;4.336;2023-06-26T09:16:54;2.73;;;1.03;;
20122;SDS011;10222;50.848;4.336;2023-06-26T09:19:20;2.57;;;1.13;;
20122;SDS011;10222;50.848;4.336;2023-06-26T09:21:47;3.03;;;1.10;;
20122;SDS011;10222;50.848;4.336;2023-06-26T09:24:14;3.03;;;1.58;;
20122;SDS011;10222;50.848;4.336;2023-06-26T09:26:40;3.70;;;1.77;;
20122;SDS011;10222;50.848;4.336;2023-06-26T09:29:06;4.13;;;1.07;;
20122;SDS011;10222;50.848;4.336;2023-06-26T09:31:33;10.93;;;3.60;;
20122;SDS011;10222;50.848;4.336;2023-06-26T09:34:01;2.78;;;0.95;;
20122;SDS011;10222;50.848;4.336;2023-06-26T09:36:30;3.13;;;1.00;;
20122;SDS011;10222;50.848;4.336;2023-06-26T09:39:04;1.33;;;0.70;;
20122;SDS011;10222;50.848;4.336;2023-06-26T09:41:33;1.63;;;0.80;;
20122;SDS011;10222;50.848;4.336;2023-06-26T09:44:01;1.80;;;0.80;;
20122;SDS011;10222;50.848;4.336;2023-06-26T09:46:28;4.20;;;0.70;;
20122;SDS011;10222;50.848;4.336;2023-06-26T09:48:58;2.00;;;0.97;;
20122;SDS011;10222;50.848;4.336;2023-06-26T09:51:24;2.30;;;0.82;;
20122;SDS011;10222;50.848;4.336;2023-06-26T09:53:50;2.72;;;0.93;;
20122;SDS011;10222;50.848;4.336;2023-06-26T09:56:16;3.28;;;1.33;;
20122;SDS011;10222;50.848;4.336;2023-06-26T09:58:43;2.85;;;0.90;;
20122;SDS011;10222;50.848;4.336;2023-06-26T10:01:09;1.83;;;0.85;;
20122;SDS011;10222;50.848;4.336;2023-06-26T10:03:35;2.25;;;1.00;;
20122;SDS011;10222;50.848;4.336;2023-06-26T10:06:03;3.70;;;1.45;;
20122;SDS011;10222;50.848;4.336;2023-06-26T10:08:30;2.92;;;0.77;;
20122;SDS011;10222;50.848;4.336;2023-06-26T10:10:57;2.03;;;0.85;;
20122;SDS011;10222;50.848;4.336;2023-06-26T10:13:26;2.92;;;1.13;;
20122;SDS011;10222;50.848;4.336;2023-06-26T10:15:53;1.40;;;0.70;;
20122;SDS011;10222;50.848;4.336;2023-06-26T10:18:19;2.53;;;0.63;;
20122;SDS011;10222;50.848;4.336;2023-06-26T10:20:47;9.13;;;2.53;;
20122;SDS011;10222;50.848;4.336;2023-06-26T10:23:14;4.40;;;1.00;;
20122;SDS011;10222;50.848;4.336;2023-06-26T10:25:40;3.42;;;0.90;;
20122;SDS011;10222;50.848;4.336;2023-06-26T10:28:07;2.70;;;1.05;;
20122;SDS011;10222;50.848;4.336;2023-06-26T10:30:35;3.10;;;1.05;;
20122;SDS011;10222;50.848;4.336;2023-06-26T10:33:02;1.55;;;0.65;;
20122;SDS011;10222;50.848;4.336;2023-06-26T10:35:29;3.25;;;1.35;;
20122;SDS011;10222;50.848;4.336;2023-06-26T10:38:00;3.72;;;1.23;;
20122;SDS011;10222;50.848;4.336;2023-06-26T10:40:40;4.10;;;0.98;;
20122;SDS011;10222;50.848;4.336;2023-06-26T10:43:06;3.63;;;1.40;;
20122;SDS011;10222;50.848;4.336;2023-06-26T10:45:36;3.10;;;1.00;;
20122;SDS011;10222;50.848;4.336;2023-06-26T10:48:02;4.07;;;0.98;;
20122;SDS011;10222;50.848;4.336;2023-06-26T10:50:32;3.10;;;1.37;;
20122;SDS011;10222;50.848;4.336;2023-06-26T10:56:22;4.63;;;1.33;;
20122;SDS011;10222;50.848;4.336;2023-06-26T11:03:37;4.28;;;1.25;;
20122;SDS011;10222;50.848;4.336;2023-06-26T11:06:09;2.45;;;1.00;;
20122;SDS011;10222;50.848;4.336;2023-06-26T11:08:48;3.08;;;0.95;;
20122;SDS011;10222;50.848;4.336;2023-06-26T11:11:15;1.92;;;1.15;;
20122;SDS011;10222;50.848;4.336;2023-06-26T11:13:41;2.72;;;1.38;;
20122;SDS011;10222;50.848;4.336;2023-06-26T11:16:08;7.80;;;1.35;;
20122;SDS011;10222;50.848;4.336;2023-06-26T11:18:34;3.67;;;1.40;;
20122;SDS011;10222;50.848;4.336;2023-06-26T11:21:06;2.45;;;1.17;;
20122;SDS011;10222;50.848;4.336;2023-06-26T11:23:33;2.47;;;1.33;;
20122;SDS011;10222;50.848;4.336;2023-06-26T11:26:16;5.57;;;1.65;;
20122;SDS011;10222;50.848;4.336;2023-06-26T11:28:49;3.85;;;1.50;;
20122;SDS011;10222;50.848;4.336;2023-06-26T11:31:28;2.75;;;1.50;;
20122;SDS011;10222;50.848;4.336;2023-06-26T11:34:01;3.80;;;1.50;;
20122;SDS011;10222;50.848;4.336;2023-06-26T11:36:28;2.35;;;1.45;;
20122;SDS011;10222;50.848;4.336;2023-06-26T11:38:55;2.85;;;1.23;;
20122;SDS011;10222;50.848;4.336;2023-06-26T11:41:22;2.72;;;1.05;;
20122;SDS011;10222;50.848;4.336;2023-06-26T11:43:48;2.58;;;1.08;;
20122;SDS011;10222;50.848;4.336;2023-06-26T11:46:17;3.20;;;0.95;;
20122;SDS011;10222;50.848;4.336;2023-06-26T11:48:43;3.92;;;1.20;;
20122;SDS011;10222;50.848;4.336;2023-06-26T11:51:12;1.40;;;1.00;;
20122;SDS011;10222;50.848;4.336;2023-06-26T11:53:39;4.45;;;1.38;;
20122;SDS011;10222;50.848;4.336;2023-06-26T11:56:12;3.95;;;1.15;;
20122;SDS011;10222;50.848;4.336;2023-06-26T12:01:20;3.53;;;1.25;;
20122;SDS011;10222;50.848;4.336;2023-06-26T12:03:48;5.90;;;1.15;;
20122;SDS011;10222;50.848;4.336;2023-06-26T12:06:15;3.63;;;1.15;;
20122;SDS011;10222;50.848;4.336;2023-06-26T12:08:41;2.50;;;0.73;;
20122;SDS011;10222;50.848;4.336;2023-06-26T12:11:07;1.80;;;0.65;;
20122;SDS011;10222;50.848;4.336;2023-06-26T12:13:34;1.67;;;0.57;;
20122;SDS011;10222;50.848;4.336;2023-06-26T12:16:00;3.03;;;1.08;;
20122;SDS011;10222;50.848;4.336;2023-06-26T12:18:32;3.42;;;0.95;;
20122;SDS011;10222;50.848;4.336;2023-06-26T12:21:01;1.42;;;0.90;;
20122;SDS011;10222;50.848;4.336;2023-06-26T12:23:33;3.55;;;1.00;;
20122;SDS011;10222;50.848;4.336;2023-06-26T12:26:19;2.85;;;1.17;;
20122;SDS011;10222;50.848;4.336;2023-06-26T12:28:46;2.47;;;1.00;;
20122;SDS011;10222;50.848;4.336;2023-06-26T12:31:16;1.42;;;0.68;;
20122;SDS011;10222;50.848;4.336;2023-06-26T12:33:44;2.08;;;1.05;;
20122;SDS011;10222;50.848;4.336;2023-06-26T12:36:11;2.63;;;0.90;;
20122;SDS011;10222;50.848;4.336;2023-06-26T12:38:37;3.08;;;0.80;;
20122;SDS011;10222;50.848;4.336;2023-06-26T12:41:03;3.85;;;0.70;;
20122;SDS011;10222;50.848;4.336;2023-06-26T12:43:29;3.25;;;1.02;;
20122;SDS011;10222;50.848;4.336;2023-06-26T12:45:55;4.38;;;0.93;;
20122;SDS011;10222;50.848;4.336;2023-06-26T12:48:35;3.25;;;0.85;;
20122;SDS011;10222;50.848;4.336;2023-06-26T12:51:08;3.47;;;1.00;;
20122;SDS011;10222;50.848;4.336;2023-06-26T12:53:34;3.97;;;1.02;;
20122;SDS011;10222;50.848;4.336;2023-06-26T12:56:00;7.00;;;2.47;;
20122;SDS011;10222;50.848;4.336;2023-06-26T12:58:26;5.40;;;1.83;;
20122;SDS011;10222;50.848;4.336;2023-06-26T13:00:52;7.55;;;1.70;;
20122;SDS011;10222;50.848;4.336;2023-06-26T13:03:19;1.33;;;0.60;;
20122;SDS011;10222;50.848;4.336;2023-06-26T13:05:48;2.35;;;0.98;;
20122;SDS011;10222;50.848;4.336;2023-06-26T13:08:14;1.55;;;0.93;;
20122;SDS011;10222;50.848;4.336;2023-06-26T13:10:43;4.55;;;1.63;;
20122;SDS011;10222;50.848;4.336;2023-06-26T13:13:10;2.65;;;1.25;;
20122;SDS011;10222;50.848;4.336;2023-06-26T13:15:36;1.63;;;0.85;;
20122;SDS011;10222;50.848;4.336;2023-06-26T13:18:02;2.03;;;0.98;;
20122;SDS011;10222;50.848;4.336;2023-06-26T13:20:28;11.52;;;5.05;;
20122;SDS011;10222;50.848;4.336;2023-06-26T13:22:55;3.88;;;1.30;;
20122;SDS011;10222;50.848;4.336;2023-06-26T13:25:21;3.90;;;1.15;;
20122;SDS011;10222;50.848;4.336;2023-06-26T13:27:48;3.60;;;1.33;;
20122;SDS011;10222;50.848;4.336;2023-06-26T13:30:17;1.40;;;0.68;;
20122;SDS011;10222;50.848;4.336;2023-06-26T13:32:43;2.55;;;0.65;;
20122;SDS011;10222;50.848;4.336;2023-06-26T13:35:09;1.77;;;1.10;;
20122;SDS011;10222;50.848;4.336;2023-06-26T13:37:35;2.03;;;0.93;;
20122;SDS011;10222;50.848;4.336;2023-06-26T13:40:02;3.50;;;1.00;;
20122;SDS011;10222;50.848;4.336;2023-06-26T13:42:28;2.33;;;0.95;;
20122;SDS011;10222;50.848;4.336;2023-06-26T13:44:54;1.70;;;0.93;;
20122;SDS011;10222;50.848;4.336;2023-06-26T13:47:20;1.73;;;0.90;;
20122;SDS011;10222;50.848;4.336;2023-06-26T13:49:46;1.80;;;1.00;;
20122;SDS011;10222;50.848;4.336;2023-06-26T13:52:12;3.25;;;0.70;;
20122;SDS011;10222;50.848;4.336;2023-06-26T13:54:38;2.33;;;0.80;;
20122;SDS011;10222;50.848;4.336;2023-06-26T13:57:06;2.55;;;1.00;;
20122;SDS011;10222;50.848;4.336;2023-06-26T13:59:32;1.30;;;0.50;;
20122;SDS011;10222;50.848;4.336;2023-06-26T14:01:58;2.65;;;0.90;;
20122;SDS011;10222;50.848;4.336;2023-06-26T14:04:25;1.98;;;0.60;;
20122;SDS011;10222;50.848;4.336;2023-06-26T14:06:52;1.10;;;0.70;;
20122;SDS011;10222;50.848;4.336;2023-06-26T14:09:18;2.55;;;0.52;;
20122;SDS011;10222;50.848;4.336;2023-06-26T14:11:44;3.08;;;0.90;;
20122;SDS011;10222;50.848;4.336;2023-06-26T14:14:10;4.35;;;0.70;;
20122;SDS011;10222;50.848;4.336;2023-06-26T14:16:36;2.17;;;0.65;;
20122;SDS011;10222;50.848;4.336;2023-06-26T14:19:05;0.93;;;0.70;;
20122;SDS011;10222;50.848;4.336;2023-06-26T14:21:31;3.22;;;0.75;;
20122;SDS011;10222;50.848;4.336;2023-06-26T14:23:58;0.90;;;0.70;;
20122;SDS011;10222;50.848;4.336;2023-06-26T14:26:24;2.45;;;0.90;;
20122;SDS011;10222;50.848;4.336;2023-06-26T14:28:50;1.48;;;0.77;;
20122;SDS011;10222;50.848;4.336;2023-06-26T14:31:16;1.67;;;0.73;;
20122;SDS011;10222;50.848;4.336;2023-06-26T14:33:42;2.35;;;1.00;;
20122;SDS011;10222;50.848;4.336;2023-06-26T14:36:08;2.15;;;0.75;;
20122;SDS011;10222;50.848;4.336;2023-06-26T14:38:34;3.33;;;0.80;;
20122;SDS011;10222;50.848;4.336;2023-06-26T14:41:00;1.58;;;0.75;;
20122;SDS011;10222;50.848;4.336;2023-06-26T14:43:26;1.33;;;0.70;;
20122;SDS011;10222;50.848;4.336;2023-06-26T14:45:52;1.70;;;0.70;;
20122;SDS011;10222;50.848;4.336;2023-06-26T14:48:18;1.20;;;0.80;;
20122;SDS011;10222;50.848;4.336;2023-06-26T14:50:44;3.42;;;0.77;;
20122;SDS011;10222;50.848;4.336;2023-06-26T14:53:10;8.20;;;1.40;;
20122;SDS011;10222;50.848;4.336;2023-06-26T14:55:36;3.08;;;1.00;;
20122;SDS011;10222;50.848;4.336;2023-06-26T14:58:02;1.80;;;0.80;;
20122;SDS011;10222;50.848;4.336;2023-06-26T15:00:28;3.13;;;0.90;;
20122;SDS011;10222;50.848;4.336;2023-06-26T15:02:54;2.15;;;0.93;;
20122;SDS011;10222;50.848;4.336;2023-06-26T15:05:23;3.15;;;0.90;;
20122;SDS011;10222;50.848;4.336;2023-06-26T15:07:49;3.95;;;1.02;;
20122;SDS011;10222;50.848;4.336;2023-06-26T15:10:15;4.03;;;0.90;;
20122;SDS011;10222;50.848;4.336;2023-06-26T15:12:42;1.40;;;0.85;;
20122;SDS011;10222;50.848;4.336;2023-06-26T15:15:08;4.80;;;1.25;;
20122;SDS011;10222;50.848;4.336;2023-06-26T15:17:34;2.63;;;1.02;;